Time;durP1;ratioP1;P1;durP2;ratioP2;P2;SDS_P1;SDS_P2;PMS_P1;PMS_P2;Temp;Humidity;BMP_temperature;BMP_pressure;BME280_temperature;BME280_humidity;BME280_pressure;Samples;Min_cycle;Max_cycle;Signal;HPM_P1;HPM_P2
2022/12/13 00:00:40;;;;;;;2.97;2.37;;;-2.20;99.90;-3.40;99043;;;;581894;246;24208;-72
2022/12/13 00:03:08;;;;;;;2.53;2.33;;;-2.20;99.90;-3.40;99037;;;;581423;246;24082;-70
2022/12/13 00:05:35;;;;;;;3.53;2.30;;;-2.20;99.90;-3.40;99036;;;;572850;246;24132;-70
2022/12/13 00:08:06;;;;;;;3.77;2.97;;;-2.20;99.90;-3.40;99039;;;;573509;246;24143;-71
2022/12/13 00:10:32;;;;;;;2.77;2.30;;;-2.20;99.90;-3.50;99036;;;;573257;246;25157;-71
2022/12/13 00:13:00;;;;;;;2.67;2.10;;;-2.20;99.90;-3.40;99039;;;;581047;243;24140;-72
2022/12/13 00:15:28;;;;;;;2.40;2.30;;;-2.20;99.90;-3.40;99024;;;;581177;246;24139;-72
2022/12/13 00:17:57;;;;;;;2.33;2.20;;;-2.10;99.90;-3.30;99027;;;;581008;246;24140;-70
2022/12/13 00:20:26;;;;;;;2.60;2.40;;;-2.10;99.90;-3.20;99023;;;;581601;246;24180;-71
2022/12/13 00:22:54;;;;;;;2.37;2.07;;;-2.00;99.90;-3.20;99030;;;;573826;246;24152;-71
2022/12/13 00:25:22;;;;;;;2.43;2.23;;;-2.00;99.90;-3.20;99023;;;;582122;246;24201;-70
2022/12/13 00:27:50;;;;;;;2.63;2.43;;;-2.00;99.90;-3.30;99033;;;;574820;246;24093;-71
2022/12/13 00:30:21;;;;;;;2.80;2.50;;;-2.00;99.90;-3.20;99034;;;;582047;246;24154;-73
2022/12/13 00:32:46;;;;;;;2.90;2.30;;;-2.00;99.90;-3.20;99034;;;;573477;246;24113;-70
2022/12/13 00:35:14;;;;;;;3.37;2.40;;;-2.00;99.90;-3.20;99024;;;;581749;246;24099;-69
2022/12/13 00:37:44;;;;;;;2.67;2.47;;;-2.00;99.90;-3.20;99026;;;;574798;246;24123;-72
2022/12/13 00:40:12;;;;;;;4.17;2.40;;;-2.00;99.90;-3.20;99020;;;;582518;246;24176;-70
2022/12/13 00:42:39;;;;;;;3.27;2.47;;;-2.00;99.90;-3.20;99028;;;;574914;246;24065;-75
2022/12/13 00:45:08;;;;;;;2.63;2.43;;;-2.00;99.90;-3.20;99025;;;;582656;246;25112;-71
2022/12/13 00:47:35;;;;;;;3.00;2.20;;;-2.00;99.90;-3.30;99036;;;;574708;246;24096;-73
2022/12/13 00:50:03;;;;;;;2.37;2.27;;;-2.00;99.90;-3.40;99027;;;;583452;245;24173;-71
2022/12/13 00:52:32;;;;;;;2.60;2.40;;;-2.10;99.90;-3.40;99037;;;;574099;246;24151;-73
2022/12/13 00:55:01;;;;;;;2.87;2.57;;;-2.10;99.90;-3.40;99030;;;;581621;246;24168;-70
2022/12/13 00:57:32;;;;;;;3.00;2.50;;;-2.10;99.90;-3.40;99025;;;;581814;245;24102;-70
2022/12/13 00:59:59;;;;;;;3.67;2.80;;;-2.20;99.90;-3.40;99022;;;;574968;245;24175;-71
2022/12/13 01:02:27;;;;;;;3.10;2.30;;;-2.10;99.90;-3.40;99034;;;;574541;245;24086;-70
2022/12/13 01:04:53;;;;;;;3.17;2.77;;;-2.20;99.90;-3.50;99030;;;;573756;245;24121;-70
2022/12/13 01:07:21;;;;;;;3.00;2.50;;;-2.20;99.90;-3.50;99015;;;;581271;246;24096;-71
2022/12/13 01:09:49;;;;;;;3.00;2.70;;;-2.30;99.90;-3.50;99037;;;;582319;246;24113;-75
2022/12/13 01:12:17;;;;;;;2.50;2.30;;;-2.30;99.90;-3.50;99026;;;;581327;246;24089;-72
2022/12/13 01:14:45;;;;;;;3.03;2.60;;;-2.30;99.90;-3.50;99024;;;;581201;243;24087;-71
2022/12/13 01:17:13;;;;;;;2.80;2.60;;;-2.30;99.90;-3.50;99022;;;;581222;246;24120;-71
2022/12/13 01:19:40;;;;;;;2.92;2.42;;;-1.70;99.90;-3.60;99027;;;;575921;246;35367;-71
2022/12/13 01:22:10;;;;;;;3.60;2.40;;;-2.30;99.90;-3.60;99032;;;;582337;246;24129;-71
2022/12/13 01:24:40;;;;;;;3.90;2.27;;;-2.30;99.90;-3.60;99036;;;;581241;246;24103;-71
2022/12/13 01:27:08;;;;;;;3.10;2.20;;;-2.40;99.90;-3.60;99025;;;;581452;246;24113;-71
2022/12/13 01:29:33;;;;;;;2.60;2.40;;;-2.40;99.90;-3.60;99034;;;;574260;246;24124;-71
2022/12/13 01:32:01;;;;;;;2.33;2.17;;;-2.40;99.90;-3.60;99037;;;;583114;246;24138;-71
2022/12/13 01:34:29;;;;;;;2.30;2.20;;;-2.40;99.90;-3.60;99038;;;;582829;246;24076;-71
2022/12/13 01:36:57;;;;;;;2.40;2.20;;;-2.40;99.90;-3.60;99033;;;;581856;246;24096;-75
2022/12/13 01:39:25;;;;;;;2.20;2.00;;;-2.40;99.90;-3.50;99034;;;;573580;246;24175;-71
2022/12/13 01:41:58;;;;;;;2.47;2.28;;;-2.30;99.90;-3.50;99035;;;;568791;246;35332;-72
2022/12/13 01:44:57;;;;;;;2.37;2.27;;;-2.30;99.90;-3.50;99038;;;;573140;246;24093;-71
2022/12/13 01:47:46;;;;;;;2.60;2.40;;;-2.20;99.90;-3.40;99042;;;;573595;246;24119;-71
2022/12/13 01:50:17;;;;;;;2.83;2.63;;;-2.20;99.90;-3.40;99049;;;;581230;246;24080;-71
2022/12/13 01:52:45;;;;;;;6.87;5.00;;;-2.20;99.90;-3.40;99043;;;;573149;246;24168;-70
2022/12/13 01:55:13;;;;;;;4.45;2.85;;;-2.20;99.90;-3.40;99038;;;;575556;246;35302;-71
2022/12/13 01:57:41;;;;;;;2.40;2.20;;;-2.20;99.90;-3.40;99052;;;;573401;246;24106;-74
2022/12/13 02:00:09;;;;;;;2.60;2.33;;;-2.20;99.90;-3.30;99058;;;;574066;246;24084;-75
2022/12/13 02:02:37;;;;;;;2.77;2.57;;;-2.10;99.90;-3.30;99062;;;;574154;246;24077;-79
2022/12/13 02:05:20;;;;;;;4.00;2.33;;;-2.10;99.90;-3.30;99059;;;;582897;246;24101;-76
2022/12/13 02:07:48;;;;;;;2.43;2.07;;;-2.00;99.90;-3.30;99062;;;;582885;242;24099;-79
2022/12/13 02:10:16;;;;;;;2.17;2.03;;;-2.00;99.90;-3.30;99061;;;;575544;245;24179;-71
2022/12/13 02:12:43;;;;;;;2.00;1.90;;;-2.10;99.90;-3.30;99065;;;;582963;241;24137;-71
2022/12/13 02:15:11;;;;;;;2.40;2.30;;;-2.10;99.90;-3.30;99064;;;;573572;245;24215;-71
2022/12/13 02:18:02;;;;;;;2.28;2.08;;;-2.10;99.90;-3.20;99072;;;;568668;245;35293;-71
2022/12/13 02:21:01;;;;;;;2.07;1.97;;;-2.00;99.90;-3.20;99062;;;;574992;246;24123;-70
2022/12/13 02:23:34;;;;;;;1.97;1.87;;;-2.00;99.90;-3.20;99057;;;;574821;246;24086;-73
2022/12/13 02:26:39;;;;;;;1.90;1.80;;;-2.00;99.90;-3.20;99058;;;;574001;246;24108;-72
2022/12/13 02:29:44;;;;;;;3.47;2.53;;;-2.00;99.90;-3.30;99063;;;;573601;246;24218;-70
2022/12/13 02:32:31;;;;;;;2.50;2.40;;;-2.00;99.90;-3.20;99072;;;;581895;246;24125;-71
2022/12/13 02:35:06;;;;;;;3.40;2.50;;;-2.00;99.90;-3.20;99075;;;;581938;246;24104;-70
2022/12/13 02:38:22;;;;;;;2.57;2.37;;;-2.00;99.90;-3.20;99065;;;;580737;245;24116;-69
2022/12/13 02:40:56;;;;;;;2.73;2.53;;;-2.00;99.90;-3.20;99059;;;;582424;245;24103;-71
2022/12/13 02:43:24;;;;;;;2.67;2.47;;;-2.00;99.90;-3.30;99067;;;;580626;246;24132;-71
2022/12/13 02:45:53;;;;;;;3.00;2.70;;;-2.00;99.90;-3.20;99067;;;;573062;246;24426;-70
2022/12/13 02:48:30;;;;;;;2.90;2.70;;;-2.00;99.90;-3.20;99069;;;;581703;246;24092;-71
2022/12/13 02:50:58;;;;;;;3.03;2.73;;;-2.00;99.90;-3.20;99069;;;;572394;246;24160;-71
2022/12/13 02:53:28;;;;;;;2.23;2.13;;;-2.00;99.90;-3.20;99053;;;;572818;246;24137;-71
2022/12/13 02:55:53;;;;;;;2.83;2.63;;;-2.00;99.90;-3.10;99068;;;;572979;246;24135;-76
2022/12/13 02:58:22;;;;;;;3.03;2.63;;;-1.90;99.90;-3.10;99063;;;;580753;246;24090;-69
2022/12/13 03:01:31;;;;;;;3.93;3.57;;;-1.80;99.90;-3.00;99071;;;;573017;246;24117;-71
2022/12/13 03:04:04;;;;;;;4.50;4.10;;;-1.80;99.90;-2.90;99067;;;;573331;246;24084;-71
2022/12/13 03:06:56;;;;;;;3.47;3.27;;;-1.80;99.90;-2.90;99073;;;;572781;246;24093;-71
2022/12/13 03:09:36;;;;;;;2.93;2.13;;;-1.60;99.90;-2.80;99068;;;;573433;246;24132;-69
2022/12/13 03:15:33;;;;;;;2.90;2.70;;;-1.60;99.90;-2.70;99066;;;;582972;246;24080;-74
2022/12/13 03:18:14;;;;;;;3.07;2.80;;;-1.50;99.90;-2.70;99067;;;;571522;252;25144;-73
2022/12/13 03:20:36;;;;;;;2.73;2.47;;;-1.50;99.90;-2.70;99050;;;;573507;249;24208;-76
2022/12/13 03:23:04;;;;;;;3.13;2.73;;;-1.50;99.90;-2.70;99060;;;;568767;245;24119;-73
2022/12/13 03:25:32;;;;;;;3.07;2.83;;;-1.50;99.90;-2.60;99054;;;;582371;245;24151;-70
2022/12/13 03:28:00;;;;;;;2.70;2.50;;;-1.50;99.90;-2.60;99067;;;;582289;245;24108;-75
2022/12/13 03:30:28;;;;;;;2.63;2.43;;;-1.40;99.90;-2.60;99064;;;;574033;246;24169;-71
2022/12/13 03:32:56;;;;;;;2.33;2.13;;;-1.40;99.90;-2.60;99069;;;;581742;246;24182;-73
2022/12/13 03:35:25;;;;;;;2.60;2.40;;;-1.40;99.90;-2.60;99052;;;;583958;246;24097;-71
2022/12/13 03:37:53;;;;;;;2.53;2.33;;;-1.40;99.90;-2.60;99055;;;;582930;246;24067;-78
2022/12/13 03:40:21;;;;;;;2.60;2.40;;;-1.40;99.90;-2.50;99067;;;;582741;246;24126;-73
2022/12/13 03:42:49;;;;;;;2.83;2.63;;;-1.30;99.90;-2.50;99065;;;;584002;242;24081;-75
2022/12/13 03:45:17;;;;;;;2.53;2.33;;;-1.30;99.90;-2.50;99064;;;;582904;246;24102;-72
2022/12/13 03:47:45;;;;;;;2.97;2.77;;;-1.30;99.90;-2.60;99060;;;;582808;246;24128;-78
2022/12/13 03:50:13;;;;;;;2.80;2.60;;;-1.30;99.90;-2.60;99039;;;;582646;246;24131;-72
2022/12/13 03:52:41;;;;;;;4.37;2.70;;;-1.40;99.90;-2.60;99050;;;;584121;246;24048;-79
2022/12/13 03:55:12;;;;;;;4.67;3.23;;;-1.40;99.90;-2.70;99056;;;;582753;246;24085;-80
2022/12/13 03:57:37;;;;;;;2.93;2.73;;;-1.50;99.90;-2.90;99056;;;;574475;246;24127;-81
2022/12/13 04:00:05;;;;;;;3.60;3.30;;;-1.60;99.90;-2.90;99059;;;;582342;246;24191;-79
2022/12/13 04:02:32;;;;;;;3.07;2.77;;;-1.70;99.90;-3.00;99031;;;;574322;246;24206;-80
2022/12/13 04:05:00;;;;;;;2.80;2.60;;;-1.80;99.90;-3.10;99037;;;;581682;246;24137;-71
2022/12/13 04:07:31;;;;;;;3.33;2.57;;;-1.90;99.90;-3.20;99035;;;;580583;246;24159;-71
2022/12/13 04:09:56;;;;;;;3.17;2.97;;;-2.00;99.90;-3.30;99035;;;;573206;246;24158;-71
2022/12/13 04:15:11;;;;;;;3.90;3.17;;;-2.10;99.90;-3.40;99036;;;;582256;245;24281;-70
2022/12/13 04:17:39;;;;;;;3.20;2.90;;;-2.20;99.90;-3.40;99035;;;;580918;246;24113;-70
2022/12/13 04:20:10;;;;;;;3.17;2.97;;;-2.20;99.90;-3.50;99040;;;;580960;246;24124;-70
2022/12/13 04:22:35;;;;;;;4.53;3.20;;;-2.30;99.90;-3.50;99049;;;;573443;246;24140;-70
2022/12/13 04:25:05;;;;;;;3.20;3.00;;;-2.40;99.90;-3.50;99055;;;;580921;246;24136;-70
2022/12/13 04:27:33;;;;;;;3.17;2.90;;;-2.40;99.90;-3.60;99056;;;;573454;246;24095;-70
2022/12/13 04:30:01;;;;;;;3.30;3.00;;;-2.40;99.90;-3.60;99066;;;;580931;246;24127;-70
2022/12/13 04:32:29;;;;;;;3.10;2.90;;;-2.40;99.90;-3.50;99069;;;;581450;245;24114;-70
2022/12/13 04:34:57;;;;;;;3.57;3.23;;;-2.30;99.90;-3.50;99071;;;;582194;245;24104;-71
2022/12/13 04:37:26;;;;;;;3.73;3.43;;;-2.30;99.90;-3.50;99072;;;;583070;244;24148;-71
2022/12/13 04:39:57;;;;;;;4.20;3.60;;;-2.30;99.90;-3.40;99066;;;;581648;245;24077;-71
2022/12/13 04:42:22;;;;;;;3.83;3.43;;;-2.20;99.90;-3.30;99082;;;;573874;245;24090;-70
2022/12/13 04:44:50;;;;;;;3.37;3.07;;;-2.10;99.90;-3.20;99082;;;;581432;246;24140;-70
2022/12/13 04:47:18;;;;;;;4.13;3.40;;;-2.10;99.90;-3.20;99080;;;;582332;246;24100;-73
2022/12/13 04:49:46;;;;;;;3.77;3.47;;;-2.00;99.90;-3.10;99086;;;;583019;246;24095;-72
2022/12/13 04:52:14;;;;;;;3.97;2.97;;;-1.90;99.90;-3.10;99079;;;;582749;246;24175;-72
2022/12/13 04:54:41;;;;;;;6.53;4.07;;;-1.90;99.90;-3.00;99089;;;;577486;246;35738;-71
2022/12/13 04:57:09;;;;;;;3.57;2.87;;;-1.90;99.90;-3.10;99076;;;;582266;246;24093;-73
2022/12/13 04:59:41;;;;;;;3.83;3.50;;;-1.90;99.90;-3.10;99079;;;;574165;246;24098;-71
2022/12/13 05:02:06;;;;;;;3.50;3.20;;;-1.90;99.90;-3.10;99091;;;;574029;246;24121;-70
2022/12/13 05:04:34;;;;;;;3.50;3.20;;;-1.90;99.90;-3.10;99089;;;;581876;246;24096;-69
2022/12/13 05:07:03;;;;;;;4.00;3.60;;;-1.90;99.90;-3.10;99080;;;;581450;246;24085;-70
2022/12/13 05:09:33;;;;;;;3.93;3.00;;;-1.90;99.90;-3.10;99087;;;;582292;246;24096;-71
2022/12/13 05:11:59;;;;;;;3.57;3.27;;;-1.90;99.90;-3.10;99079;;;;575616;246;24104;-70
2022/12/13 05:14:31;;;;;;;3.33;2.80;;;-1.90;99.90;-3.00;99088;;;;573762;246;24133;-71
2022/12/13 05:16:55;;;;;;;3.23;2.93;;;-1.80;99.90;-3.00;99091;;;;574189;246;24108;-77
2022/12/13 05:19:25;;;;;;;4.57;3.57;;;-1.80;99.90;-2.90;99084;;;;582221;246;24076;-73
2022/12/13 05:21:53;;;;;;;3.33;3.10;;;-1.80;99.90;-3.00;99085;;;;583187;246;25160;-70
2022/12/13 05:24:21;;;;;;;4.13;2.83;;;-1.80;99.90;-3.00;99084;;;;581736;246;24083;-70
2022/12/13 05:26:51;;;;;;;3.73;3.33;;;-1.80;99.90;-3.00;99082;;;;581881;246;24090;-70
2022/12/13 05:29:16;;;;;;;3.63;3.33;;;-1.80;99.90;-3.00;99090;;;;574209;246;24135;-71
2022/12/13 05:31:44;;;;;;;3.53;3.20;;;-1.80;99.90;-3.10;99093;;;;582035;246;24128;-70
2022/12/13 05:34:12;;;;;;;3.60;3.30;;;-1.90;99.90;-3.10;99094;;;;582042;246;24126;-74
2022/12/13 05:36:40;;;;;;;4.73;3.80;;;-1.90;99.90;-3.10;99092;;;;573869;246;24150;-72
2022/12/13 05:39:08;;;;;;;4.03;3.63;;;-1.90;99.90;-3.10;99104;;;;582849;246;24109;-77
2022/12/13 05:41:40;;;;;;;3.50;3.20;;;-1.90;99.90;-3.10;99095;;;;581503;246;24122;-71
2022/12/13 05:44:04;;;;;;;4.23;3.80;;;-1.90;99.90;-3.10;99110;;;;574441;245;24097;-70
2022/12/13 05:46:32;;;;;;;5.23;4.07;;;-1.90;99.90;-3.00;99097;;;;583125;245;24143;-70
2022/12/13 05:49:00;;;;;;;5.47;3.40;;;-1.90;99.90;-3.00;99111;;;;583175;245;24151;-73
2022/12/13 05:51:28;;;;;;;4.72;3.80;;;-1.80;99.90;-3.00;99112;;;;578030;245;35398;-78
2022/12/13 05:53:55;;;;;;;4.90;3.37;;;-1.80;99.90;-3.00;99121;;;;583177;246;24079;-75
2022/12/13 05:56:23;;;;;;;4.50;3.77;;;-1.80;99.90;-3.00;99121;;;;584247;246;24073;-84
2022/12/13 05:58:53;;;;;;;4.00;3.60;;;-1.80;99.90;-3.00;99122;;;;583021;246;24129;-77
2022/12/13 06:01:19;;;;;;;3.80;3.33;;;-1.80;99.90;-3.00;99121;;;;574829;246;24111;-83
2022/12/13 06:03:50;;;;;;;4.30;3.90;;;-1.80;99.90;-3.00;99115;;;;575034;246;24105;-78
2022/12/13 06:06:17;;;;;;;4.27;3.30;;;-1.80;99.90;-3.00;99119;;;;573962;246;24109;-84
2022/12/13 06:08:43;;;;;;;3.23;2.93;;;-1.90;99.90;-3.10;99120;;;;581407;244;24100;-71
2022/12/13 06:11:15;;;;;;;4.00;3.53;;;-1.90;99.90;-3.00;99121;;;;582628;246;24107;-71
2022/12/13 06:13:39;;;;;;;4.37;3.90;;;-1.90;99.90;-3.00;99134;;;;582573;242;24173;-74
2022/12/13 06:16:07;;;;;;;6.47;4.50;;;-1.90;99.90;-3.10;99136;;;;573732;245;24163;-71
2022/12/13 06:18:35;;;;;;;5.23;4.50;;;-1.90;99.90;-3.10;99132;;;;581371;246;24144;-71
2022/12/13 06:21:03;;;;;;;7.33;4.40;;;-1.90;99.90;-3.10;99130;;;;581286;246;24173;-71
2022/12/13 06:23:31;;;;;;;5.37;4.57;;;-1.90;99.90;-3.10;99137;;;;573568;246;24105;-70
2022/12/13 06:25:59;;;;;;;8.30;4.30;;;-1.90;99.90;-3.10;99141;;;;573941;246;24132;-72
2022/12/13 06:28:27;;;;;;;8.77;4.40;;;-1.90;99.90;-3.10;99144;;;;573702;246;24134;-73
2022/12/13 06:30:55;;;;;;;7.37;4.53;;;-1.90;99.90;-3.10;99144;;;;580846;246;24223;-70
2022/12/13 06:33:23;;;;;;;7.43;4.40;;;-1.90;99.90;-3.00;99146;;;;581860;246;24093;-71
2022/12/13 06:35:51;;;;;;;5.70;4.83;;;-1.90;99.90;-3.00;99140;;;;580778;246;24137;-72
2022/12/13 06:38:19;;;;;;;6.23;4.40;;;-1.80;99.90;-3.00;99138;;;;580723;246;24118;-70
2022/12/13 06:40:47;;;;;;;7.17;4.33;;;-1.80;99.90;-3.00;99151;;;;582295;246;24137;-71
2022/12/13 06:43:15;;;;;;;4.87;4.27;;;-1.80;99.90;-3.00;99153;;;;581116;246;24092;-71
2022/12/13 06:45:43;;;;;;;7.53;4.30;;;-1.80;99.90;-3.10;99149;;;;581045;246;25113;-70
2022/12/13 06:48:11;;;;;;;6.13;4.23;;;-1.90;99.90;-3.10;99136;;;;582121;246;24136;-70
2022/12/13 06:50:38;;;;;;;5.57;3.70;;;-1.90;99.90;-3.20;99142;;;;580941;246;24153;-70
2022/12/13 06:53:06;;;;;;;5.23;4.00;;;-2.00;99.90;-3.20;99154;;;;581039;246;24124;-70
2022/12/13 06:55:34;;;;;;;6.27;4.17;;;-2.00;99.90;-3.20;99153;;;;581476;245;24109;-70
2022/12/13 06:58:02;;;;;;;4.87;4.23;;;-2.00;99.90;-3.20;99156;;;;583503;245;24103;-70
2022/12/13 07:00:30;;;;;;;5.70;3.90;;;-2.00;99.90;-3.20;99161;;;;583136;245;24131;-71
2022/12/13 07:02:58;;;;;;;7.43;4.37;;;-2.00;99.90;-3.20;99172;;;;574228;245;24116;-71
2022/12/13 07:05:26;;;;;;;5.03;4.53;;;-2.00;99.90;-3.10;99179;;;;581378;246;24096;-70
2022/12/13 07:07:54;;;;;;;4.87;4.37;;;-1.90;99.90;-3.00;99180;;;;581266;246;24139;-70
2022/12/13 07:10:22;;;;;;;4.60;3.90;;;-1.90;99.90;-2.90;99186;;;;581129;246;24101;-71
2022/12/13 07:12:50;;;;;;;5.23;4.23;;;-1.80;99.90;-2.90;99185;;;;581694;243;24096;-76
2022/12/13 07:15:18;;;;;;;5.43;4.30;;;-1.70;99.90;-2.80;99181;;;;583349;242;24158;-73
2022/12/13 07:17:45;;;;;;;6.50;4.90;;;-1.70;99.90;-2.80;99187;;;;581923;246;24171;-72
2022/12/13 07:20:14;;;;;;;7.40;5.73;;;-1.60;99.90;-2.80;99190;;;;573848;246;24188;-71
2022/12/13 07:22:41;;;;;;;7.30;5.30;;;-1.60;99.90;-2.70;99187;;;;580679;246;24176;-71
2022/12/13 07:25:09;;;;;;;6.33;5.57;;;-1.50;99.90;-2.60;99203;;;;580919;246;24152;-71
2022/12/13 07:27:41;;;;;;;11.93;5.70;;;-1.50;99.90;-2.60;99193;;;;580757;246;24167;-71
2022/12/13 07:30:05;;;;;;;5.67;5.03;;;-1.40;99.90;-2.50;99204;;;;574064;246;24138;-72
2022/12/13 07:32:33;;;;;;;5.87;4.40;;;-1.30;99.90;-2.50;99200;;;;574272;246;24175;-76
2022/12/13 07:35:01;;;;;;;7.50;4.70;;;-1.30;99.90;-2.50;99207;;;;583059;246;24070;-77
2022/12/13 07:37:29;;;;;;;4.67;3.97;;;-1.30;99.90;-2.40;99210;;;;582075;246;24188;-74
2022/12/13 07:40:01;;;;;;;6.60;4.27;;;-1.20;99.90;-2.40;99214;;;;581978;246;24088;-74
2022/12/13 07:42:25;;;;;;;4.50;4.03;;;-1.20;99.90;-2.40;99210;;;;582597;244;24119;-77
2022/12/13 07:44:53;;;;;;;5.63;4.70;;;-1.20;99.90;-2.30;99211;;;;582356;246;24097;-83
2022/12/13 07:47:22;;;;;;;6.20;4.70;;;-1.10;99.90;-2.30;99216;;;;582389;246;24099;-81
2022/12/13 07:49:50;;;;;;;6.67;4.67;;;-1.10;99.90;-2.20;99225;;;;582119;245;24142;-78
2022/12/13 07:52:18;;;;;;;6.97;5.00;;;-1.10;99.90;-2.20;99220;;;;581846;246;24104;-83
2022/12/13 07:54:46;;;;;;;5.13;4.57;;;-1.00;99.90;-2.20;99221;;;;581767;246;24082;-76
2022/12/13 07:57:14;;;;;;;7.13;5.03;;;-1.00;99.90;-2.20;99225;;;;581375;246;24146;-70
2022/12/13 07:59:42;;;;;;;4.30;3.90;;;-1.00;99.90;-2.20;99223;;;;581249;246;24093;-70
2022/12/13 08:02:11;;;;;;;5.17;4.13;;;-1.00;99.90;-2.10;99223;;;;581278;246;24077;-70
2022/12/13 08:04:39;;;;;;;4.47;3.67;;;-1.00;99.90;-2.10;99233;;;;573684;246;24130;-70
2022/12/13 08:07:07;;;;;;;4.70;3.73;;;-0.90;99.90;-2.10;99235;;;;582248;245;24091;-72
2022/12/13 08:09:35;;;;;;;5.87;4.13;;;-0.90;99.90;-2.00;99239;;;;583856;245;24093;-71
2022/12/13 08:12:04;;;;;;;5.00;4.33;;;-0.90;99.90;-2.00;99241;;;;582494;245;24164;-70
2022/12/13 08:14:30;;;;;;;4.87;3.60;;;-0.90;99.90;-2.00;99236;;;;574318;245;24101;-71
2022/12/13 08:16:58;;;;;;;6.03;3.70;;;-0.80;99.90;-2.00;99224;;;;582392;246;24129;-74
2022/12/13 08:19:26;;;;;;;4.07;3.63;;;-0.80;99.90;-1.90;99237;;;;581979;246;24084;-72
2022/12/13 08:21:55;;;;;;;5.07;4.23;;;-0.70;99.90;-1.90;99245;;;;581686;246;24091;-70
2022/12/13 08:24:25;;;;;;;4.40;3.37;;;-0.70;99.90;-1.80;99250;;;;581810;246;24111;-76
2022/12/13 08:26:53;;;;;;;5.60;4.40;;;-0.70;99.90;-1.80;99246;;;;582999;246;24092;-74
2022/12/13 08:29:20;;;;;;;4.07;3.37;;;-0.60;99.90;-1.70;99255;;;;582380;246;24069;-70
2022/12/13 08:31:49;;;;;;;4.63;3.87;;;-0.60;99.90;-1.70;99258;;;;582147;246;24113;-71
2022/12/13 08:34:17;;;;;;;4.47;4.07;;;-0.60;99.90;-1.70;99253;;;;581801;246;24143;-74
2022/12/13 08:36:45;;;;;;;6.13;3.87;;;-0.50;99.90;-1.60;99260;;;;582692;246;24094;-73
2022/12/13 08:39:13;;;;;;;4.70;4.03;;;-0.50;99.90;-1.60;99260;;;;573673;246;24097;-73
2022/12/13 08:41:41;;;;;;;5.90;3.53;;;-0.40;99.90;-1.50;99262;;;;581705;246;24075;-72
2022/12/13 08:44:09;;;;;;;4.30;3.80;;;-0.40;99.90;-1.50;99268;;;;581943;244;24090;-71
2022/12/13 08:46:37;;;;;;;5.20;3.60;;;-0.30;99.90;-1.40;99266;;;;582352;245;24134;-70
2022/12/13 08:49:06;;;;;;;6.47;4.30;;;-0.20;99.90;-1.40;99275;;;;581374;246;24094;-69
2022/12/13 08:51:34;;;;;;;6.67;4.57;;;-0.20;99.90;-1.30;99279;;;;581757;246;24136;-70
2022/12/13 08:54:01;;;;;;;5.73;4.20;;;-0.20;99.90;-1.30;99279;;;;583200;246;24201;-76
2022/12/13 08:56:29;;;;;;;5.53;3.93;;;-0.20;99.90;-1.40;99286;;;;582746;246;24119;-73
2022/12/13 08:58:57;;;;;;;4.28;3.83;;;-0.20;99.90;-1.30;99279;;;;576901;246;35413;-74
2022/12/13 09:01:25;;;;;;;7.70;4.00;;;-0.20;99.90;-1.40;99282;;;;581365;246;25116;-71
2022/12/13 09:03:53;;;;;;;4.57;3.90;;;-0.20;99.90;-1.30;99289;;;;581672;246;24081;-81
2022/12/13 09:06:21;;;;;;;4.60;4.13;;;-0.20;99.90;-1.30;99298;;;;573865;246;24136;-71
2022/12/13 09:08:49;;;;;;;4.10;3.40;;;-0.10;99.90;-1.20;99306;;;;581340;246;24105;-70
2022/12/13 09:11:18;;;;;;;4.97;3.73;;;0.00;99.90;-1.20;99300;;;;573161;246;24124;-70
2022/12/13 09:13:45;;;;;;;4.90;3.50;;;0.00;99.90;-1.10;99305;;;;580583;243;24119;-70
2022/12/13 09:16:13;;;;;;;4.30;3.67;;;0.00;99.90;-1.10;99313;;;;581661;246;24116;-70
2022/12/13 09:18:41;;;;;;;7.03;3.40;;;0.00;99.90;-1.10;99322;;;;574054;245;24198;-75
2022/12/13 09:21:09;;;;;;;4.97;3.50;;;0.10;99.90;-1.10;99315;;;;574842;245;24104;-70
2022/12/13 09:23:41;;;;;;;5.00;3.37;;;0.10;99.90;-1.10;99321;;;;574273;245;25141;-70
2022/12/13 09:26:06;;;;;;;3.60;3.30;;;0.10;99.90;-1.10;99315;;;;573812;245;24109;-72
2022/12/13 09:28:38;;;;;;;5.57;4.07;;;0.00;99.90;-1.10;99328;;;;573450;246;24210;-71
2022/12/13 09:31:02;;;;;;;5.70;3.50;;;0.00;99.90;-1.10;99318;;;;573143;246;26475;-73
2022/12/13 09:33:29;;;;;;;8.13;3.87;;;0.00;99.90;-1.10;99315;;;;579372;243;24166;-71
2022/12/13 09:35:58;;;;;;;5.93;4.00;;;0.10;99.90;-1.10;99316;;;;581311;246;24093;-73
2022/12/13 09:38:26;;;;;;;5.70;4.10;;;0.10;99.90;-1.10;99318;;;;582026;246;24102;-70
2022/12/13 09:40:55;;;;;;;5.10;4.20;;;0.10;99.90;-1.00;99315;;;;582273;246;25209;-71
2022/12/13 09:43:23;;;;;;;8.33;4.37;;;0.10;99.90;-1.00;99323;;;;573169;246;24102;-70
2022/12/13 09:45:51;;;;;;;4.53;3.40;;;0.10;99.90;-1.00;99315;;;;573600;246;24119;-70
2022/12/13 09:48:19;;;;;;;5.97;3.70;;;0.10;99.90;-1.00;99321;;;;573664;246;24087;-73
2022/12/13 09:50:49;;;;;;;7.90;4.20;;;0.20;99.90;-0.90;99317;;;;573667;246;24073;-70
2022/12/13 09:53:20;;;;;;;6.77;4.20;;;0.20;99.90;-0.90;99326;;;;573383;246;24197;-69
2022/12/13 09:55:47;;;;;;;6.37;3.67;;;0.30;99.90;-0.80;99320;;;;573257;246;24082;-69
2022/12/13 09:58:24;;;;;;;4.93;4.00;;;0.30;99.90;-0.80;99322;;;;573367;246;25156;-71
2022/12/13 10:00:55;;;;;;;4.00;3.60;;;0.30;99.90;-0.80;99329;;;;572336;246;24131;-71
2022/12/13 10:03:24;;;;;;;3.80;3.03;;;0.40;99.90;-0.70;99332;;;;580974;246;24119;-71
2022/12/13 10:06:00;;;;;;;4.50;3.47;;;0.30;99.90;-0.80;99332;;;;582075;242;24128;-72
2022/12/13 10:08:32;;;;;;;5.10;3.80;;;0.30;99.90;-0.80;99333;;;;571810;246;24108;-70
2022/12/13 10:11:01;;;;;;;4.63;3.23;;;0.30;99.90;-0.80;99332;;;;581723;242;24136;-73
2022/12/13 10:13:56;;;;;;;5.80;3.60;;;0.30;99.90;-0.70;99346;;;;580713;243;24148;-70
2022/12/13 10:16:33;;;;;;;6.03;3.70;;;0.40;99.90;-0.60;99348;;;;573245;246;24086;-73
2022/12/13 10:19:20;;;;;;;3.80;3.33;;;0.50;99.90;-0.50;99347;;;;573819;246;24061;-76
2022/12/13 10:21:50;;;;;;;4.83;3.87;;;0.70;99.90;-0.40;99338;;;;583140;246;24172;-71
2022/12/13 10:24:29;;;;;;;6.70;4.40;;;0.70;99.90;-0.30;99348;;;;581724;246;24160;-73
2022/12/13 10:26:51;;;;;;;11.47;5.27;;;0.80;99.90;-0.20;99336;;;;573798;246;24096;-74
2022/12/13 10:29:19;;;;;;;10.20;4.63;;;0.90;99.90;-0.20;99335;;;;581833;246;24099;-71
2022/12/13 10:31:47;;;;;;;6.03;4.50;;;1.00;99.90;-0.20;99340;;;;584245;245;24155;-70
2022/12/13 10:34:21;;;;;;;5.20;3.43;;;1.00;99.90;-0.10;99335;;;;575008;245;24143;-70
2022/12/13 10:36:50;;;;;;;5.07;3.43;;;1.00;99.90;-0.10;99341;;;;573862;245;24154;-71
2022/12/13 10:39:35;;;;;;;4.47;3.20;;;1.00;99.90;-0.10;99338;;;;574284;246;24092;-72
2022/12/13 10:42:03;;;;;;;5.20;3.63;;;1.10;99.90;-0.10;99350;;;;581448;246;24156;-71
2022/12/13 10:44:31;;;;;;;7.12;3.85;;;1.10;99.90;-0.10;99332;;;;568639;246;35410;-72
2022/12/13 10:47:17;;;;;;;6.17;3.77;;;1.10;99.90;-0.10;99337;;;;583160;246;24185;-71
2022/12/13 10:49:57;;;;;;;4.57;3.47;;;1.10;99.90;0.00;99340;;;;574077;246;24113;-72
2022/12/13 10:52:34;;;;;;;4.77;3.50;;;1.10;99.90;-0.10;99350;;;;583182;242;24123;-71
2022/12/13 10:55:05;;;;;;;4.10;3.50;;;1.10;99.90;0.00;99342;;;;574243;246;24092;-72
2022/12/13 10:57:36;;;;;;;4.10;3.57;;;1.20;99.90;0.00;99349;;;;574636;246;24138;-70
2022/12/13 11:00:00;;;;;;;7.60;3.60;;;1.20;99.90;0.00;99340;;;;581675;246;24100;-72
2022/12/13 11:02:34;;;;;;;9.07;5.97;;;1.20;99.90;0.00;99341;;;;581772;246;24147;-73
2022/12/13 11:05:20;;;;;;;7.17;4.53;;;1.20;99.90;0.10;99350;;;;581827;246;24100;-73
2022/12/13 11:07:52;;;;;;;4.47;4.07;;;1.20;99.90;0.10;99341;;;;571157;246;24176;-71
2022/12/13 11:10:20;;;;;;;4.53;3.57;;;1.20;99.90;0.00;99338;;;;576489;244;24098;-70
2022/12/13 11:12:54;;;;;;;5.60;3.60;;;1.20;99.90;0.00;99343;;;;573863;246;24106;-74
2022/12/13 11:15:24;;;;;;;5.50;3.57;;;1.10;99.90;-0.10;99352;;;;573531;246;24168;-70
2022/12/13 11:18:01;;;;;;;4.03;3.63;;;1.10;99.90;-0.10;99346;;;;582948;246;24120;-71
2022/12/13 11:20:35;;;;;;;7.17;3.50;;;1.10;99.90;-0.10;99349;;;;583228;246;24083;-71
2022/12/13 11:23:06;;;;;;;4.00;3.43;;;1.10;99.90;-0.10;99351;;;;581702;246;24089;-77
2022/12/13 11:25:36;;;;;;;4.90;3.13;;;1.10;99.90;-0.10;99349;;;;574366;246;24406;-75
2022/12/13 11:28:25;;;;;;;5.20;3.93;;;1.00;99.90;-0.20;99351;;;;573938;246;24135;-72
2022/12/13 11:31:32;;;;;;;4.23;3.00;;;1.00;99.90;-0.20;99351;;;;582910;246;24086;-72
2022/12/13 11:34:03;;;;;;;6.10;3.93;;;1.00;99.90;-0.10;99359;;;;582606;246;24157;-70
2022/12/13 11:36:52;;;;;;;5.87;3.73;;;1.00;99.90;0.00;99355;;;;573821;246;25133;-72
2022/12/13 11:39:29;;;;;;;5.03;3.40;;;1.10;99.90;-0.10;99349;;;;573685;246;24098;-72